Time;durP1;ratioP1;P1;durP2;ratioP2;P2;SDS_P1;SDS_P2;PMS_P1;PMS_P2;Temp;Humidity;BMP_temperature;BMP_pressure;BME280_temperature;BME280_humidity;BME280_pressure;Samples;Min_cycle;Max_cycle;Signal;HPM_P1;HPM_P2
2021/05/31 00:01:49;;;;;;;10.55;3.10;;;;;;;;;;5021396;28;20040;-85
2021/05/31 00:04:17;;;;;;;7.82;2.38;;;;;;;;;;5018976;28;20029;-86
2021/05/31 00:06:50;;;;;;;6.78;2.13;;;;;;;;;;5022544;28;20051;-85
2021/05/31 00:09:19;;;;;;;9.50;2.20;;;;;;;;;;5017503;28;20025;-84
2021/05/31 00:11:46;;;;;;;7.43;1.73;;;;;;;;;;5016215;28;20103;-84
2021/05/31 00:14:12;;;;;;;7.18;2.50;;;;;;;;;;5034498;28;20136;-84
2021/05/31 00:16:39;;;;;;;7.63;2.10;;;;;;;;;;5023287;28;20064;-83
2021/05/31 00:19:09;;;;;;;8.20;1.92;;;;;;;;;;5027451;28;20063;-84
2021/05/31 00:21:38;;;;;;;8.05;2.08;;;;;;;;;;5031511;28;20040;-86
2021/05/31 00:24:05;;;;;;;9.98;2.63;;;;;;;;;;5020777;28;20029;-86
2021/05/31 00:26:33;;;;;;;7.90;2.10;;;;;;;;;;5045187;28;20033;-85
2021/05/31 00:28:59;;;;;;;8.40;2.42;;;;;;;;;;5037199;28;20036;-86
2021/05/31 00:31:26;;;;;;;6.60;1.90;;;;;;;;;;5040529;28;20024;-85
2021/05/31 00:33:53;;;;;;;6.75;2.00;;;;;;;;;;5039991;28;20025;-85
2021/05/31 00:36:21;;;;;;;6.90;1.90;;;;;;;;;;5034532;28;20037;-85
2021/05/31 00:38:49;;;;;;;9.77;3.08;;;;;;;;;;5040134;28;20096;-85
2021/05/31 00:41:15;;;;;;;8.35;2.53;;;;;;;;;;5037286;28;20041;-85
2021/05/31 00:43:42;;;;;;;6.88;2.42;;;;;;;;;;5025722;28;20110;-85
2021/05/31 00:46:09;;;;;;;7.78;1.88;;;;;;;;;;5022177;28;20511;-86
2021/05/31 00:48:38;;;;;;;6.68;1.70;;;;;;;;;;5048686;28;20021;-85
2021/05/31 00:51:06;;;;;;;7.28;1.80;;;;;;;;;;5035955;28;20075;-85
2021/05/31 00:53:34;;;;;;;8.05;1.67;;;;;;;;;;5039579;28;20080;-86
2021/05/31 00:56:00;;;;;;;6.38;1.80;;;;;;;;;;5044767;28;20473;-86
2021/05/31 00:58:28;;;;;;;6.38;1.98;;;;;;;;;;5027197;28;20037;-85
2021/05/31 01:01:02;;;;;;;7.03;1.83;;;;;;;;;;5046500;28;20115;-86
2021/05/31 01:03:29;;;;;;;7.40;2.03;;;;;;;;;;5033882;28;20052;-85
2021/05/31 01:06:21;;;;;;;7.15;1.85;;;;;;;;;;5023607;28;20115;-86
2021/05/31 01:08:56;;;;;;;7.10;1.67;;;;;;;;;;5037793;28;20036;-85
2021/05/31 01:11:32;;;;;;;7.03;2.33;;;;;;;;;;5037568;28;20021;-83
2021/05/31 01:14:26;;;;;;;9.48;2.80;;;;;;;;;;5025512;28;20037;-85
2021/05/31 01:16:52;;;;;;;4.97;1.58;;;;;;;;;;5034318;28;20044;-83
2021/05/31 01:19:38;;;;;;;8.63;1.80;;;;;;;;;;5034073;28;20021;-86
2021/05/31 01:22:07;;;;;;;8.80;2.08;;;;;;;;;;5020515;28;20174;-85
2021/05/31 01:24:53;;;;;;;11.32;2.42;;;;;;;;;;5038537;28;20144;-86
2021/05/31 01:27:33;;;;;;;8.13;2.08;;;;;;;;;;5012864;28;20042;-86
2021/05/31 01:30:03;;;;;;;8.02;2.17;;;;;;;;;;5015282;28;20094;-87
2021/05/31 01:32:37;;;;;;;6.32;2.20;;;;;;;;;;5010809;28;20088;-87
2021/05/31 01:35:11;;;;;;;8.15;2.30;;;;;;;;;;5016875;28;20079;-86
2021/05/31 01:37:39;;;;;;;6.68;1.95;;;;;;;;;;5012312;28;20045;-87
2021/05/31 01:40:07;;;;;;;8.95;2.42;;;;;;;;;;5017162;28;20078;-87
2021/05/31 01:42:34;;;;;;;7.25;2.42;;;;;;;;;;4998495;28;20127;-85
2021/05/31 01:45:00;;;;;;;8.75;2.47;;;;;;;;;;5016629;28;20076;-86
2021/05/31 01:47:29;;;;;;;7.10;1.70;;;;;;;;;;5011773;28;20041;-84
2021/05/31 01:49:56;;;;;;;6.97;1.98;;;;;;;;;;5009739;28;20044;-84
2021/05/31 01:52:25;;;;;;;7.22;2.28;;;;;;;;;;5008965;28;20486;-85
2021/05/31 01:54:56;;;;;;;5.60;1.83;;;;;;;;;;5013070;28;20482;-86
2021/05/31 01:57:24;;;;;;;6.85;2.10;;;;;;;;;;5010278;28;20095;-85
2021/05/31 01:59:51;;;;;;;6.68;2.15;;;;;;;;;;5017122;28;20029;-85
2021/05/31 02:02:20;;;;;;;6.78;1.83;;;;;;;;;;5032670;28;20682;-86
2021/05/31 02:04:47;;;;;;;6.50;2.00;;;;;;;;;;5017010;28;20028;-85
2021/05/31 02:07:14;;;;;;;7.25;2.17;;;;;;;;;;5012627;28;20040;-84
2021/05/31 02:09:41;;;;;;;6.80;2.28;;;;;;;;;;5032995;28;20029;-86
2021/05/31 02:12:11;;;;;;;6.88;2.28;;;;;;;;;;5014969;28;20021;-82
2021/05/31 02:14:50;;;;;;;7.05;1.90;;;;;;;;;;4994280;28;20160;-80
2021/05/31 02:17:21;;;;;;;6.10;1.85;;;;;;;;;;5012461;28;20013;-82
2021/05/31 02:19:53;;;;;;;5.90;1.90;;;;;;;;;;5010371;28;20029;-81
2021/05/31 02:22:20;;;;;;;7.25;1.88;;;;;;;;;;5004304;28;20462;-80
2021/05/31 02:24:48;;;;;;;6.55;1.88;;;;;;;;;;5010110;28;20487;-80
2021/05/31 02:27:17;;;;;;;6.55;2.00;;;;;;;;;;5006014;28;20596;-82
2021/05/31 02:29:43;;;;;;;5.72;2.13;;;;;;;;;;5010101;28;20627;-80
2021/05/31 02:32:09;;;;;;;7.63;2.22;;;;;;;;;;5025581;28;20028;-80
2021/05/31 02:34:37;;;;;;;7.68;2.25;;;;;;;;;;5011476;28;20434;-83
2021/05/31 02:37:04;;;;;;;7.85;2.25;;;;;;;;;;5022183;28;20037;-81
2021/05/31 02:39:32;;;;;;;6.65;1.90;;;;;;;;;;5026912;28;20702;-80
2021/05/31 02:41:59;;;;;;;8.60;2.20;;;;;;;;;;5021407;28;20037;-83
2021/05/31 02:44:27;;;;;;;6.55;2.10;;;;;;;;;;5005056;28;20076;-81
2021/05/31 02:46:56;;;;;;;12.02;2.30;;;;;;;;;;5008533;28;20040;-80
2021/05/31 02:49:23;;;;;;;9.00;2.20;;;;;;;;;;5018547;28;20504;-83
2021/05/31 02:51:52;;;;;;;7.75;2.13;;;;;;;;;;5011170;28;20222;-80
2021/05/31 02:54:19;;;;;;;6.85;2.10;;;;;;;;;;5012453;28;20032;-87
2021/05/31 02:56:46;;;;;;;6.72;2.13;;;;;;;;;;5037816;28;20037;-84
2021/05/31 02:59:13;;;;;;;7.13;2.10;;;;;;;;;;5025671;28;20025;-86
2021/05/31 03:01:41;;;;;;;7.30;2.22;;;;;;;;;;5019760;28;20048;-87
2021/05/31 03:04:07;;;;;;;8.18;2.58;;;;;;;;;;5019747;28;20024;-85
2021/05/31 03:06:34;;;;;;;7.00;2.25;;;;;;;;;;5037969;28;20252;-86
2021/05/31 03:09:03;;;;;;;8.45;2.15;;;;;;;;;;5042339;28;20100;-86
2021/05/31 03:11:29;;;;;;;8.10;2.00;;;;;;;;;;5019348;28;20035;-82
2021/05/31 03:13:56;;;;;;;7.70;2.53;;;;;;;;;;5041284;28;20017;-82
2021/05/31 03:16:22;;;;;;;7.65;2.17;;;;;;;;;;5015042;28;20037;-82
2021/05/31 03:18:49;;;;;;;6.32;2.13;;;;;;;;;;5014871;28;20029;-82
2021/05/31 03:21:16;;;;;;;9.98;2.22;;;;;;;;;;5007570;28;20032;-82
2021/05/31 03:23:44;;;;;;;6.60;2.35;;;;;;;;;;5015397;28;20032;-83
2021/05/31 03:26:12;;;;;;;6.63;2.17;;;;;;;;;;5025376;28;20049;-83
2021/05/31 03:28:41;;;;;;;8.13;2.17;;;;;;;;;;5037270;28;20060;-82
2021/05/31 03:31:08;;;;;;;6.78;2.03;;;;;;;;;;5017131;28;20040;-80
2021/05/31 03:33:39;;;;;;;6.50;1.80;;;;;;;;;;5012767;28;20079;-83
2021/05/31 03:36:06;;;;;;;7.75;2.30;;;;;;;;;;5017760;28;20056;-82
2021/05/31 03:38:32;;;;;;;8.45;2.40;;;;;;;;;;5007845;28;20042;-82
2021/05/31 03:41:00;;;;;;;7.55;2.53;;;;;;;;;;5016449;28;20113;-82
2021/05/31 03:43:26;;;;;;;8.57;2.70;;;;;;;;;;4998193;28;20033;-80
2021/05/31 03:45:52;;;;;;;8.32;2.80;;;;;;;;;;5021154;28;20037;-81
2021/05/31 03:48:19;;;;;;;7.25;2.53;;;;;;;;;;5009413;28;20056;-81
2021/05/31 03:50:45;;;;;;;9.43;2.22;;;;;;;;;;5001028;28;20108;-81
2021/05/31 03:53:12;;;;;;;7.47;2.30;;;;;;;;;;5010614;28;20030;-81
2021/05/31 03:55:40;;;;;;;8.02;2.50;;;;;;;;;;4996030;28;20021;-81
2021/05/31 03:58:08;;;;;;;6.63;1.98;;;;;;;;;;5003125;28;20045;-80
2021/05/31 04:00:37;;;;;;;6.20;2.13;;;;;;;;;;4997607;28;20033;-80
2021/05/31 04:03:03;;;;;;;7.10;2.20;;;;;;;;;;4993643;28;20037;-80
2021/05/31 04:05:33;;;;;;;5.75;1.92;;;;;;;;;;4989765;28;20145;-81
2021/05/31 04:13:32;;;;;;;6.22;2.17;;;;;;;;;;5007441;28;20656;-80
2021/05/31 04:15:58;;;;;;;6.32;2.03;;;;;;;;;;5030031;28;20041;-80
2021/05/31 04:18:27;;;;;;;8.23;2.03;;;;;;;;;;5034226;28;20152;-81
2021/05/31 04:20:54;;;;;;;8.05;2.17;;;;;;;;;;5034083;28;20028;-80
2021/05/31 04:23:22;;;;;;;7.50;2.28;;;;;;;;;;5031209;28;20021;-80
2021/05/31 04:25:49;;;;;;;10.13;2.42;;;;;;;;;;5034920;28;20520;-81
2021/05/31 04:28:17;;;;;;;6.32;2.30;;;;;;;;;;5025868;28;20112;-81
2021/05/31 04:30:44;;;;;;;8.48;2.40;;;;;;;;;;5037698;28;20020;-80
2021/05/31 04:33:11;;;;;;;8.98;2.60;;;;;;;;;;5035412;28;20052;-82
2021/05/31 04:35:38;;;;;;;8.82;3.30;;;;;;;;;;5036421;28;20457;-80
2021/05/31 04:38:06;;;;;;;8.85;2.78;;;;;;;;;;5039508;28;20035;-81
2021/05/31 04:40:32;;;;;;;9.00;3.08;;;;;;;;;;5028204;28;20106;-80
2021/05/31 04:42:59;;;;;;;7.93;2.58;;;;;;;;;;5035061;28;20059;-80
2021/05/31 04:45:25;;;;;;;8.57;2.90;;;;;;;;;;5020901;28;20103;-80
2021/05/31 04:47:54;;;;;;;10.45;3.03;;;;;;;;;;5033263;28;20103;-80
2021/05/31 04:50:21;;;;;;;7.57;2.42;;;;;;;;;;5012061;28;20025;-81
2021/05/31 04:52:47;;;;;;;8.02;2.53;;;;;;;;;;5014449;28;20033;-81
2021/05/31 04:55:17;;;;;;;8.02;2.30;;;;;;;;;;5028184;28;20774;-81
2021/05/31 04:57:43;;;;;;;6.75;2.17;;;;;;;;;;5029667;28;20123;-81
2021/05/31 05:00:10;;;;;;;8.68;2.58;;;;;;;;;;5029716;28;20538;-81
2021/05/31 05:02:36;;;;;;;10.02;3.08;;;;;;;;;;5031355;28;20029;-82
2021/05/31 05:05:06;;;;;;;8.35;2.75;;;;;;;;;;5037402;28;20590;-81
2021/05/31 05:07:32;;;;;;;9.48;2.50;;;;;;;;;;5021827;28;20033;-81
2021/05/31 05:09:58;;;;;;;6.75;2.10;;;;;;;;;;5032703;28;20070;-81
2021/05/31 05:12:24;;;;;;;9.55;2.40;;;;;;;;;;5024232;28;20400;-81
2021/05/31 05:14:51;;;;;;;12.25;3.00;;;;;;;;;;5034589;28;20013;-81
2021/05/31 05:17:17;;;;;;;8.48;2.20;;;;;;;;;;5024530;28;20571;-81
2021/05/31 05:19:43;;;;;;;6.55;2.08;;;;;;;;;;5025038;28;20037;-81
2021/05/31 05:22:35;;;;;;;10.13;2.45;;;;;;;;;;5031959;28;20026;-81
2021/05/31 05:25:01;;;;;;;7.93;2.08;;;;;;;;;;5030294;28;20068;-82
2021/05/31 05:27:27;;;;;;;7.75;2.33;;;;;;;;;;5032550;28;20025;-80
2021/05/31 05:29:53;;;;;;;10.82;2.60;;;;;;;;;;5030221;28;20248;-82
2021/05/31 05:32:20;;;;;;;9.15;2.75;;;;;;;;;;5029688;28;20076;-80
2021/05/31 05:34:46;;;;;;;6.93;2.53;;;;;;;;;;5029333;28;20033;-80
2021/05/31 05:37:17;;;;;;;9.85;2.85;;;;;;;;;;5024441;28;20186;-80
2021/05/31 05:45:15;;;;;;;8.02;2.42;;;;;;;;;;5030654;28;20242;-80
2021/05/31 05:47:44;;;;;;;10.05;2.97;;;;;;;;;;5034472;28;20116;-80
2021/05/31 05:50:16;;;;;;;7.30;2.30;;;;;;;;;;5025366;28;20429;-80
2021/05/31 05:52:43;;;;;;;10.85;2.80;;;;;;;;;;5029472;28;20609;-80
2021/05/31 05:55:35;;;;;;;9.73;2.85;;;;;;;;;;5027538;28;20032;-81
2021/05/31 05:58:01;;;;;;;9.45;3.13;;;;;;;;;;5034738;28;20043;-80
2021/05/31 06:00:29;;;;;;;9.65;3.00;;;;;;;;;;5005760;28;20481;-80
2021/05/31 06:02:55;;;;;;;10.68;2.92;;;;;;;;;;5027990;28;20037;-80
2021/05/31 06:05:22;;;;;;;18.75;3.67;;;;;;;;;;5023915;28;20634;-80
2021/05/31 06:10:43;;;;;;;13.02;3.90;;;;;;;;;;5030927;28;20044;-80
2021/05/31 06:13:10;;;;;;;12.57;3.47;;;;;;;;;;5026374;28;20091;-81
2021/05/31 06:15:36;;;;;;;14.15;4.13;;;;;;;;;;5028351;28;20029;-80
2021/05/31 06:18:03;;;;;;;11.13;3.42;;;;;;;;;;5027168;28;20032;-80
2021/05/31 06:20:29;;;;;;;14.00;3.90;;;;;;;;;;5028764;28;20368;-80
2021/05/31 06:22:56;;;;;;;19.25;5.05;;;;;;;;;;5028466;28;20753;-81
2021/05/31 06:25:22;;;;;;;26.05;4.30;;;;;;;;;;5027884;28;20057;-80
2021/05/31 06:27:48;;;;;;;14.13;3.10;;;;;;;;;;5032477;28;20495;-81
2021/05/31 06:30:40;;;;;;;12.88;4.20;;;;;;;;;;5032171;28;20029;-82
2021/05/31 06:33:07;;;;;;;11.27;3.72;;;;;;;;;;5032264;28;20056;-81
2021/05/31 06:35:35;;;;;;;13.93;3.67;;;;;;;;;;5030614;28;20043;-80
2021/05/31 06:38:02;;;;;;;17.15;4.05;;;;;;;;;;5029962;28;20032;-80
2021/05/31 06:40:28;;;;;;;13.13;3.70;;;;;;;;;;5009681;28;20643;-80
2021/05/31 06:45:41;;;;;;;12.25;3.65;;;;;;;;;;5027443;28;20067;-81
2021/05/31 06:48:09;;;;;;;16.30;3.88;;;;;;;;;;5029996;28;20025;-81
2021/05/31 06:50:36;;;;;;;11.23;5.03;;;;;;;;;;5026022;28;20033;-82
2021/05/31 06:53:03;;;;;;;12.57;3.63;;;;;;;;;;5029275;28;20111;-81
2021/05/31 06:55:34;;;;;;;17.95;6.55;;;;;;;;;;5025271;28;22443;-78
2021/05/31 06:58:01;;;;;;;10.90;3.90;;;;;;;;;;5026844;28;20090;-77
2021/05/31 07:00:28;;;;;;;19.25;8.98;;;;;;;;;;5027043;28;20452;-78
2021/05/31 07:02:54;;;;;;;21.13;9.38;;;;;;;;;;5006954;28;20067;-78
2021/05/31 07:05:46;;;;;;;16.50;6.05;;;;;;;;;;5024553;28;20025;-78
2021/05/31 07:08:14;;;;;;;13.98;6.70;;;;;;;;;;5019002;28;20021;-78
2021/05/31 07:10:41;;;;;;;13.93;5.72;;;;;;;;;;5024164;28;20021;-78
2021/05/31 07:13:07;;;;;;;11.80;4.68;;;;;;;;;;5025968;28;20052;-77
2021/05/31 07:15:34;;;;;;;11.50;4.70;;;;;;;;;;5024100;28;20040;-77
2021/05/31 07:18:00;;;;;;;9.50;3.20;;;;;;;;;;5028281;28;20032;-78
2021/05/31 07:20:26;;;;;;;9.82;3.25;;;;;;;;;;5021644;28;20082;-80
2021/05/31 07:22:53;;;;;;;10.00;3.33;;;;;;;;;;5029996;28;20056;-78
2021/05/31 07:25:19;;;;;;;11.70;3.50;;;;;;;;;;5014307;28;20588;-77
2021/05/31 07:27:45;;;;;;;9.48;3.22;;;;;;;;;;5021723;28;20037;-77
2021/05/31 07:30:12;;;;;;;10.38;3.20;;;;;;;;;;5002732;28;20027;-77
2021/05/31 07:32:39;;;;;;;8.80;3.17;;;;;;;;;;5010047;28;20030;-77
2021/05/31 07:35:06;;;;;;;12.30;2.97;;;;;;;;;;5012850;28;20036;-79
2021/05/31 07:37:33;;;;;;;11.80;2.90;;;;;;;;;;5012455;28;20033;-79
2021/05/31 07:40:25;;;;;;;9.48;3.13;;;;;;;;;;5024253;28;20064;-79
2021/05/31 07:42:52;;;;;;;10.13;3.00;;;;;;;;;;5022040;28;20029;-79
2021/05/31 07:45:19;;;;;;;10.65;2.70;;;;;;;;;;5000006;28;20136;-79
2021/05/31 07:47:47;;;;;;;17.88;3.35;;;;;;;;;;5024144;28;20037;-79
2021/05/31 07:53:04;;;;;;;8.55;2.67;;;;;;;;;;5007445;28;20124;-79
2021/05/31 07:55:31;;;;;;;8.77;3.00;;;;;;;;;;5010833;28;21609;-77
2021/05/31 07:57:57;;;;;;;8.60;2.55;;;;;;;;;;5001805;28;20037;-78
2021/05/31 08:00:24;;;;;;;7.88;2.70;;;;;;;;;;5018122;28;20037;-77
2021/05/31 08:02:54;;;;;;;9.50;2.92;;;;;;;;;;5021376;28;20032;-77
2021/05/31 08:05:23;;;;;;;7.70;2.88;;;;;;;;;;5004926;28;20026;-78
2021/05/31 08:07:51;;;;;;;10.00;3.08;;;;;;;;;;5001287;28;20438;-77
2021/05/31 08:10:18;;;;;;;9.88;2.70;;;;;;;;;;5017143;28;20033;-78
2021/05/31 08:12:46;;;;;;;9.90;3.03;;;;;;;;;;5019267;28;20068;-77
2021/05/31 08:15:38;;;;;;;10.48;2.78;;;;;;;;;;5005260;28;20092;-77
2021/05/31 08:18:30;;;;;;;7.78;2.92;;;;;;;;;;5031947;28;20025;-77
2021/05/31 08:20:56;;;;;;;6.47;2.25;;;;;;;;;;5007860;28;20029;-77
2021/05/31 08:23:23;;;;;;;9.07;2.33;;;;;;;;;;5005018;28;20414;-78
2021/05/31 08:25:51;;;;;;;8.07;2.95;;;;;;;;;;5008904;28;20172;-78
2021/05/31 08:28:19;;;;;;;10.15;2.53;;;;;;;;;;5009561;28;20462;-75
2021/05/31 08:30:45;;;;;;;7.88;2.42;;;;;;;;;;5024047;28;20041;-76
2021/05/31 08:33:11;;;;;;;9.93;2.90;;;;;;;;;;5020923;28;20029;-77
2021/05/31 08:35:39;;;;;;;8.23;2.47;;;;;;;;;;5008938;28;20520;-78
2021/05/31 08:38:06;;;;;;;7.68;2.22;;;;;;;;;;5023489;28;20488;-78
2021/05/31 08:40:33;;;;;;;8.52;2.50;;;;;;;;;;5013443;28;20025;-77
2021/05/31 08:43:01;;;;;;;8.73;2.20;;;;;;;;;;5006881;28;20639;-78
2021/05/31 08:45:30;;;;;;;9.57;2.05;;;;;;;;;;5013741;28;20021;-78
2021/05/31 08:47:58;;;;;;;6.40;2.15;;;;;;;;;;5012697;28;20044;-77
2021/05/31 08:50:26;;;;;;;6.53;1.92;;;;;;;;;;5022400;28;20029;-77
2021/05/31 08:52:54;;;;;;;6.80;1.90;;;;;;;;;;5027411;28;20029;-79
2021/05/31 08:58:17;;;;;;;6.38;2.30;;;;;;;;;;5006363;28;20051;-77
2021/05/31 09:00:45;;;;;;;9.15;2.00;;;;;;;;;;5022630;28;20840;-77
2021/05/31 09:03:11;;;;;;;7.75;2.08;;;;;;;;;;5005712;28;20060;-79
2021/05/31 09:05:38;;;;;;;6.82;2.17;;;;;;;;;;5022707;28;20037;-77
2021/05/31 09:08:09;;;;;;;6.97;1.90;;;;;;;;;;5021830;28;20033;-77
2021/05/31 09:10:39;;;;;;;7.05;2.03;;;;;;;;;;5007582;28;20028;-78
2021/05/31 09:13:06;;;;;;;7.70;1.90;;;;;;;;;;5012543;28;20029;-77
2021/05/31 09:15:32;;;;;;;11.07;2.40;;;;;;;;;;5004562;28;20112;-78
2021/05/31 09:17:59;;;;;;;7.60;2.10;;;;;;;;;;5028256;28;20841;-78
2021/05/31 09:20:50;;;;;;;7.68;1.98;;;;;;;;;;5021180;28;20036;-78
2021/05/31 09:23:17;;;;;;;8.40;2.22;;;;;;;;;;5020051;28;20715;-78
2021/05/31 09:25:44;;;;;;;8.07;2.20;;;;;;;;;;5030055;28;20051;-77
2021/05/31 09:28:12;;;;;;;7.43;2.33;;;;;;;;;;5005298;28;20481;-78
2021/05/31 09:30:44;;;;;;;6.43;2.08;;;;;;;;;;5014798;28;20033;-78
2021/05/31 09:33:12;;;;;;;6.55;1.90;;;;;;;;;;5015598;28;20502;-77
2021/05/31 09:35:43;;;;;;;5.30;1.90;;;;;;;;;;5022801;28;20049;-77
2021/05/31 09:38:10;;;;;;;8.88;1.88;;;;;;;;;;5006796;28;20477;-77
2021/05/31 09:40:37;;;;;;;7.97;2.15;;;;;;;;;;5009425;28;20064;-78
2021/05/31 09:43:05;;;;;;;5.93;2.10;;;;;;;;;;5006369;28;20057;-77
2021/05/31 09:45:34;;;;;;;19.38;2.88;;;;;;;;;;5002994;28;20116;-77
2021/05/31 09:48:02;;;;;;;26.55;4.00;;;;;;;;;;5020810;28;20135;-77
2021/05/31 09:50:33;;;;;;;7.75;2.20;;;;;;;;;;5020624;28;20759;-77
2021/05/31 09:53:02;;;;;;;9.05;2.40;;;;;;;;;;5023886;28;20031;-78
2021/05/31 09:55:54;;;;;;;20.95;3.10;;;;;;;;;;5004523;28;20057;-77
2021/05/31 09:58:25;;;;;;;9.52;2.20;;;;;;;;;;5001014;28;20754;-76
2021/05/31 10:00:59;;;;;;;19.10;2.67;;;;;;;;;;5007308;28;20044;-77
2021/05/31 10:04:11;;;;;;;32.90;5.38;;;;;;;;;;5007044;28;20029;-77
2021/05/31 10:06:39;;;;;;;12.05;2.50;;;;;;;;;;5006243;28;20120;-79
2021/05/31 10:09:07;;;;;;;9.45;2.17;;;;;;;;;;5011452;28;20071;-78
2021/05/31 10:11:35;;;;;;;8.55;2.03;;;;;;;;;;5018646;28;20458;-78
2021/05/31 10:14:03;;;;;;;8.32;2.10;;;;;;;;;;5023691;28;20073;-78
2021/05/31 10:16:32;;;;;;;6.80;1.92;;;;;;;;;;5005204;28;20123;-78
2021/05/31 10:18:59;;;;;;;9.23;2.05;;;;;;;;;;5021835;28;20041;-77
2021/05/31 10:21:27;;;;;;;10.30;2.17;;;;;;;;;;5007178;28;20042;-79
2021/05/31 10:23:54;;;;;;;18.70;3.03;;;;;;;;;;5022748;28;20837;-78
2021/05/31 10:26:28;;;;;;;18.92;3.83;;;;;;;;;;5014319;28;20768;-85
2021/05/31 10:28:55;;;;;;;15.55;2.70;;;;;;;;;;5029935;28;20100;-85
2021/05/31 10:31:28;;;;;;;12.27;2.40;;;;;;;;;;5018374;28;20146;-85
2021/05/31 10:34:26;;;;;;;20.13;3.00;;;;;;;;;;5015619;28;20589;-86
2021/05/31 10:37:06;;;;;;;12.10;2.45;;;;;;;;;;5011654;28;20041;-84
2021/05/31 10:39:32;;;;;;;7.32;1.70;;;;;;;;;;5032326;28;20635;-84
2021/05/31 10:42:09;;;;;;;7.38;2.20;;;;;;;;;;5026310;28;20575;-83
2021/05/31 10:44:44;;;;;;;7.60;2.10;;;;;;;;;;5035743;28;20145;-85
2021/05/31 10:47:38;;;;;;;7.32;1.90;;;;;;;;;;5032965;28;20417;-87
2021/05/31 10:50:15;;;;;;;6.35;1.90;;;;;;;;;;4972752;28;20735;-87
2021/05/31 10:52:51;;;;;;;5.55;1.70;;;;;;;;;;4957102;28;20035;-85
2021/05/31 10:55:18;;;;;;;5.65;2.05;;;;;;;;;;4966866;28;20038;-85
2021/05/31 10:57:46;;;;;;;7.63;2.00;;;;;;;;;;4973566;28;20082;-86
2021/05/31 11:00:29;;;;;;;5.05;1.75;;;;;;;;;;4948865;28;20667;-86
2021/05/31 11:03:12;;;;;;;8.25;2.10;;;;;;;;;;4962688;28;20095;-85
2021/05/31 11:05:40;;;;;;;6.00;2.00;;;;;;;;;;4955749;28;20065;-85
2021/05/31 11:08:08;;;;;;;6.32;1.98;;;;;;;;;;4967049;28;20062;-86
2021/05/31 11:10:35;;;;;;;5.05;1.90;;;;;;;;;;4954109;28;20104;-84
2021/05/31 11:13:16;;;;;;;5.82;2.13;;;;;;;;;;4953147;28;20050;-85
2021/05/31 11:15:43;;;;;;;7.75;2.10;;;;;;;;;;4961921;28;20061;-85
2021/05/31 11:18:10;;;;;;;7.07;2.20;;;;;;;;;;4953323;28;20122;-84
2021/05/31 11:20:40;;;;;;;5.53;1.98;;;;;;;;;;4956585;28;20128;-84
2021/05/31 11:23:07;;;;;;;6.50;2.10;;;;;;;;;;4971082;28;20845;-85
2021/05/31 11:25:34;;;;;;;6.30;2.13;;;;;;;;;;4967145;28;20059;-84
2021/05/31 11:28:04;;;;;;;6.20;2.17;;;;;;;;;;5011092;28;20030;-84
2021/05/31 11:30:56;;;;;;;8.13;3.20;;;;;;;;;;4990211;28;20608;-85
2021/05/31 11:33:33;;;;;;;6.82;2.15;;;;;;;;;;4991552;28;20109;-85
2021/05/31 11:35:59;;;;;;;10.75;3.90;;;;;;;;;;4998445;28;20037;-85
2021/05/31 11:38:26;;;;;;;7.93;2.20;;;;;;;;;;5009172;28;20056;-85
2021/05/31 11:41:17;;;;;;;6.25;2.00;;;;;;;;;;5009471;28;20026;-84
2021/05/31 11:43:50;;;;;;;8.00;2.10;;;;;;;;;;5002420;28;20034;-84
2021/05/31 11:46:17;;;;;;;8.48;1.90;;;;;;;;;;5000084;28;20038;-83
2021/05/31 11:48:49;;;;;;;8.68;2.17;;;;;;;;;;4997106;28;20056;-87
2021/05/31 11:51:17;;;;;;;4.95;1.80;;;;;;;;;;4986979;28;20025;-80
2021/05/31 11:53:48;;;;;;;6.70;1.70;;;;;;;;;;4987417;28;20073;-81
2021/05/31 11:56:30;;;;;;;5.10;1.80;;;;;;;;;;4986225;28;20034;-82
2021/05/31 11:58:56;;;;;;;4.60;1.65;;;;;;;;;;4999984;28;20026;-89
2021/05/31 12:01:23;;;;;;;24.92;3.20;;;;;;;;;;5014839;28;20032;-84
2021/05/31 12:04:15;;;;;;;16.52;2.92;;;;;;;;;;5019814;28;20033;-90
2021/05/31 12:06:58;;;;;;;9.90;2.15;;;;;;;;;;5003917;28;20022;-86
2021/05/31 12:09:26;;;;;;;7.43;1.98;;;;;;;;;;5001264;28;20037;-86
2021/05/31 12:11:55;;;;;;;9.02;2.22;;;;;;;;;;5005630;28;20429;-87
2021/05/31 12:14:24;;;;;;;9.52;2.13;;;;;;;;;;5014727;28;20042;-86
2021/05/31 12:17:01;;;;;;;7.70;1.88;;;;;;;;;;5017188;28;20036;-85
2021/05/31 12:19:28;;;;;;;8.80;1.92;;;;;;;;;;4998000;28;20026;-86
2021/05/31 12:21:57;;;;;;;14.15;2.40;;;;;;;;;;5000513;28;20061;-87
2021/05/31 12:24:41;;;;;;;17.65;2.58;;;;;;;;;;4996612;28;20038;-86
2021/05/31 12:27:07;;;;;;;13.10;2.30;;;;;;;;;;5034516;28;20564;-86
2021/05/31 12:30:22;;;;;;;6.38;1.58;;;;;;;;;;5034077;28;20048;-82
2021/05/31 12:32:46;;;;;;;8.23;1.92;;;;;;;;;;5024597;28;20033;-87
2021/05/31 12:35:18;;;;;;;10.00;1.90;;;;;;;;;;5037493;28;20033;-90
2021/05/31 12:38:09;;;;;;;18.80;2.25;;;;;;;;;;5024720;28;20409;-85
2021/05/31 12:41:09;;;;;;;19.65;2.92;;;;;;;;;;5024930;28;20044;-86
2021/05/31 12:44:08;;;;;;;22.20;3.05;;;;;;;;;;5030901;28;20033;-84
2021/05/31 12:46:39;;;;;;;6.25;1.90;;;;;;;;;;5022523;28;20044;-82
2021/05/31 12:49:05;;;;;;;5.60;2.00;;;;;;;;;;5018522;28;20109;-88
2021/05/31 12:51:38;;;;;;;13.15;2.55;;;;;;;;;;5020466;28;20025;-85
2021/05/31 12:54:09;;;;;;;18.40;2.65;;;;;;;;;;5037763;28;20037;-85
2021/05/31 12:56:38;;;;;;;9.05;2.00;;;;;;;;;;5039306;28;20889;-87
2021/05/31 12:59:09;;;;;;;6.90;1.88;;;;;;;;;;5016886;28;20041;-86
2021/05/31 13:01:35;;;;;;;7.93;2.30;;;;;;;;;;5022469;28;20398;-86
2021/05/31 13:04:06;;;;;;;6.57;1.50;;;;;;;;;;5016471;28;20048;-87
2021/05/31 13:06:40;;;;;;;6.00;1.80;;;;;;;;;;5037799;28;20258;-87
2021/05/31 13:09:09;;;;;;;6.50;2.17;;;;;;;;;;5027175;28;20025;-87
2021/05/31 13:11:45;;;;;;;7.68;1.90;;;;;;;;;;5020825;28;20149;-87
2021/05/31 13:14:20;;;;;;;6.43;2.00;;;;;;;;;;5035273;28;20021;-87
2021/05/31 13:16:55;;;;;;;5.28;1.70;;;;;;;;;;5019063;28;20022;-87
2021/05/31 13:19:24;;;;;;;5.95;1.80;;;;;;;;;;5021914;28;20098;-84
2021/05/31 13:22:01;;;;;;;7.70;2.20;;;;;;;;;;5019251;28;20030;-84
2021/05/31 13:24:28;;;;;;;6.80;1.77;;;;;;;;;;5012583;28;20029;-85
2021/05/31 13:27:12;;;;;;;9.65;1.80;;;;;;;;;;5036911;28;20133;-85
2021/05/31 13:29:40;;;;;;;5.47;1.63;;;;;;;;;;5037985;28;20727;-84
2021/05/31 13:32:08;;;;;;;3.95;1.40;;;;;;;;;;5044062;28;20017;-84
2021/05/31 13:35:14;;;;;;;;;;;;;;;;;;;;;
2021/05/31 13:40:55;;;;;;;9.77;4.10;;;;;;;;;;5001960;28;20045;-88
2021/05/31 13:43:23;;;;;;;5.50;1.52;;;;;;;;;;4980623;28;20120;-86
2021/05/31 13:45:51;;;;;;;7.13;1.70;;;;;;;;;;4967295;28;20042;-85
2021/05/31 13:48:56;;;;;;;6.20;1.73;;;;;;;;;;4980882;28;20085;-89
2021/05/31 13:51:27;;;;;;;5.32;1.80;;;;;;;;;;4983906;28;20072;-88
2021/05/31 13:53:54;;;;;;;8.25;1.60;;;;;;;;;;4983715;28;20046;-85
2021/05/31 13:56:21;;;;;;;7.00;1.83;;;;;;;;;;4963983;28;20034;-86
2021/05/31 13:58:48;;;;;;;10.57;1.80;;;;;;;;;;4968623;28;20066;-86
2021/05/31 14:01:15;;;;;;;5.80;1.52;;;;;;;;;;4961130;28;20031;-86
2021/05/31 14:03:44;;;;;;;5.65;1.60;;;;;;;;;;4963275;28;20606;-89
2021/05/31 14:09:00;;;;;;;6.43;1.65;;;;;;;;;;4946301;28;20026;-86
2021/05/31 14:14:17;;;;;;;4.40;1.55;;;;;;;;;;4989911;28;20064;-88
2021/05/31 14:16:44;;;;;;;5.43;1.42;;;;;;;;;;4991506;28;20386;-89
2021/05/31 14:19:13;;;;;;;6.05;1.67;;;;;;;;;;4972611;28;20042;-91
2021/05/31 14:21:46;;;;;;;8.73;1.88;;;;;;;;;;4970380;28;20061;-89
2021/05/31 14:24:14;;;;;;;6.77;1.57;;;;;;;;;;4968658;28;20058;-89
2021/05/31 14:26:41;;;;;;;5.88;1.63;;;;;;;;;;4963891;28;20038;-86
2021/05/31 14:29:13;;;;;;;5.63;1.60;;;;;;;;;;4989910;28;20034;-87
2021/05/31 14:31:44;;;;;;;7.05;1.73;;;;;;;;;;4962130;28;20497;-85
2021/05/31 14:34:10;;;;;;;5.20;1.63;;;;;;;;;;4967155;28;20089;-84
2021/05/31 14:36:38;;;;;;;5.45;1.80;;;;;;;;;;4971934;28;20041;-83
2021/05/31 14:39:05;;;;;;;5.90;1.50;;;;;;;;;;4984511;28;20495;-83
2021/05/31 14:41:32;;;;;;;5.03;1.60;;;;;;;;;;4947027;28;20038;-84
2021/05/31 14:44:02;;;;;;;6.60;1.73;;;;;;;;;;4964087;28;20045;-82
2021/05/31 14:46:29;;;;;;;5.15;1.35;;;;;;;;;;4969465;28;20609;-81
2021/05/31 14:48:56;;;;;;;5.07;1.55;;;;;;;;;;4969225;28;20041;-86
2021/05/31 14:51:53;;;;;;;4.20;1.27;;;;;;;;;;4968612;28;20030;-81
2021/05/31 14:54:25;;;;;;;5.85;1.45;;;;;;;;;;4983006;28;20034;-81
2021/05/31 14:57:02;;;;;;;5.18;1.58;;;;;;;;;;4976527;28;20048;-84
2021/05/31 14:59:29;;;;;;;5.22;1.50;;;;;;;;;;4973304;28;20656;-83
2021/05/31 15:01:55;;;;;;;4.18;1.40;;;;;;;;;;4974110;28;20033;-81
2021/05/31 15:04:22;;;;;;;4.35;1.48;;;;;;;;;;4961709;28;20414;-81
2021/05/31 15:06:49;;;;;;;4.47;1.90;;;;;;;;;;4948578;28;20018;-83
2021/05/31 15:12:11;;;;;;;4.90;1.48;;;;;;;;;;4975467;28;20045;-86
2021/05/31 15:14:41;;;;;;;6.82;1.80;;;;;;;;;;4958397;28;20073;-84
2021/05/31 15:17:09;;;;;;;6.68;1.52;;;;;;;;;;4955956;28;20052;-88
2021/05/31 15:19:41;;;;;;;5.35;1.52;;;;;;;;;;4964264;28;20444;-81
2021/05/31 15:22:33;;;;;;;6.80;1.52;;;;;;;;;;4977662;28;20056;-84
2021/05/31 15:25:00;;;;;;;6.80;1.60;;;;;;;;;;4961342;28;20588;-80
2021/05/31 15:27:26;;;;;;;4.35;1.40;;;;;;;;;;4987034;28;20056;-80
2021/05/31 15:29:56;;;;;;;5.38;1.48;;;;;;;;;;4985781;28;20030;-80
2021/05/31 15:32:23;;;;;;;5.97;1.63;;;;;;;;;;4993378;28;20053;-79
2021/05/31 15:34:49;;;;;;;5.65;1.38;;;;;;;;;;5011875;28;20028;-81